Time;durP1;ratioP1;P1;durP2;ratioP2;P2;SDS_P1;SDS_P2;PMS_P1;PMS_P2;Temp;Humidity;BMP_temperature;BMP_pressure;BME280_temperature;BME280_humidity;BME280_pressure;Samples;Min_cycle;Max_cycle;Signal;HPM_P1;HPM_P2
2021/01/16 00:00:27;;;;;;;24.92;19.02;;;;;;;-2.18;94.17;96761.56;1036696;28;20483;-88
2021/01/16 00:00:58;;;;;;;26.08;20.15;;;;;;;-2.17;94.59;96762.38;1036936;28;20100;-87
2021/01/16 00:01:28;;;;;;;25.80;19.92;;;;;;;-2.23;94.47;96757.81;1040438;28;20028;-88
2021/01/16 00:01:59;;;;;;;26.92;20.75;;;;;;;-2.23;93.62;96757.81;1041441;28;20028;-89
2021/01/16 00:02:30;;;;;;;24.63;19.50;;;;;;;-2.19;93.50;96759.94;1032358;28;20065;-87
2021/01/16 00:03:01;;;;;;;25.02;20.00;;;;;;;-2.16;94.67;96751.84;1033605;28;20038;-89
2021/01/16 00:03:31;;;;;;;27.17;19.45;;;;;;;-2.20;94.25;96760.91;1035514;28;20021;-88
2021/01/16 00:04:02;;;;;;;23.50;19.23;;;;;;;-2.16;94.48;96754.44;1031762;28;20052;-88
2021/01/16 00:04:32;;;;;;;25.20;19.02;;;;;;;-2.21;94.07;96754.09;1036141;28;20025;-88
2021/01/16 00:05:03;;;;;;;26.52;18.80;;;;;;;-2.14;93.28;96762.06;1036638;28;20014;-88
2021/01/16 00:05:34;;;;;;;26.83;20.13;;;;;;;-2.10;94.29;96760.81;1033555;28;20030;-88
2021/01/16 00:06:04;;;;;;;25.63;20.92;;;;;;;-2.12;94.36;96749.78;1041531;28;20041;-87
2021/01/16 00:06:36;;;;;;;26.08;20.05;;;;;;;-2.16;93.88;96757.03;1041670;28;20029;-88
2021/01/16 00:07:06;;;;;;;28.98;20.33;;;;;;;-2.14;94.49;96759.47;1040210;28;20037;-88
2021/01/16 00:07:36;;;;;;;28.95;19.15;;;;;;;-2.15;94.36;96760.44;1044851;28;20029;-88
2021/01/16 00:08:08;;;;;;;28.70;20.90;;;;;;;-2.10;94.80;96755.63;1040130;28;20021;-87
2021/01/16 00:08:41;;;;;;;25.48;19.75;;;;;;;-2.11;94.39;96761.78;1040228;28;20109;-89
2021/01/16 00:09:11;;;;;;;27.77;19.85;;;;;;;-2.11;94.03;96757.41;1040354;28;20557;-88
2021/01/16 00:09:41;;;;;;;28.33;20.10;;;;;;;-2.13;93.95;96761.09;1040927;28;20049;-89
2021/01/16 00:10:14;;;;;;;25.20;19.30;;;;;;;-2.20;93.56;96765.28;1040395;28;20026;-87
2021/01/16 00:10:46;;;;;;;25.02;20.17;;;;;;;-2.14;93.25;96754.28;1036126;28;20439;-87
2021/01/16 00:11:16;;;;;;;26.48;19.48;;;;;;;-2.12;93.09;96760.16;1036086;28;20490;-88
2021/01/16 00:11:47;;;;;;;25.65;19.75;;;;;;;-2.13;93.10;96756.75;1036783;28;20096;-88
2021/01/16 00:12:18;;;;;;;26.98;19.75;;;;;;;-2.19;93.77;96759.13;1040517;28;20028;-87
2021/01/16 00:12:49;;;;;;;28.33;20.92;;;;;;;-2.21;93.53;96759.28;1044833;28;20013;-87
2021/01/16 00:13:21;;;;;;;26.92;20.63;;;;;;;-2.27;93.29;96764.25;1039535;28;20101;-88
2021/01/16 00:13:52;;;;;;;27.38;20.35;;;;;;;-2.27;93.24;96761.66;1035278;28;20024;-88
2021/01/16 00:14:22;;;;;;;26.15;19.88;;;;;;;-2.25;93.04;96757.13;1036307;28;20375;-88
2021/01/16 00:14:53;;;;;;;25.23;19.95;;;;;;;-2.26;92.77;96760.69;1032772;28;20015;-87
2021/01/16 00:15:24;;;;;;;27.05;20.40;;;;;;;-2.31;93.56;96758.56;1036287;28;20014;-88
2021/01/16 00:15:55;;;;;;;27.00;21.20;;;;;;;-2.30;94.85;96759.38;1039991;28;20025;-86
2021/01/16 00:16:25;;;;;;;27.27;20.45;;;;;;;-2.30;94.64;96759.38;1040212;28;20022;-87
2021/01/16 00:16:55;;;;;;;25.17;19.15;;;;;;;-2.26;93.95;96765.88;1044793;28;20029;-87
2021/01/16 00:17:26;;;;;;;26.90;20.83;;;;;;;-2.25;94.44;96764.91;1044671;28;20370;-87
2021/01/16 00:18:17;;;;;;;26.50;19.95;;;;;;;-2.25;93.37;96762.31;1044835;28;20462;-88
2021/01/16 00:18:47;;;;;;;25.05;19.02;;;;;;;-2.37;93.60;96760.00;1043881;28;20044;-87
2021/01/16 00:19:18;;;;;;;26.90;20.00;;;;;;;-2.31;93.46;96768.13;1044884;28;20025;-86
2021/01/16 00:19:48;;;;;;;24.15;18.98;;;;;;;-2.28;93.27;96762.63;1042652;28;20374;-87
2021/01/16 00:20:19;;;;;;;29.55;19.73;;;;;;;-2.29;93.60;96753.22;1042578;28;20017;-86
2021/01/16 00:20:51;;;;;;;27.08;20.77;;;;;;;-2.22;94.14;96764.63;1041227;28;20033;-87
2021/01/16 00:21:21;;;;;;;27.25;19.13;;;;;;;-2.24;94.70;96770.00;1040341;28;20025;-86
2021/01/16 00:21:51;;;;;;;25.33;19.58;;;;;;;-2.21;94.65;96758.47;1040607;28;20038;-86
2021/01/16 00:22:22;;;;;;;24.75;20.08;;;;;;;-2.18;94.62;96758.16;1040725;28;20017;-88
2021/01/16 00:22:52;;;;;;;24.63;19.90;;;;;;;-2.16;94.45;96756.22;1044808;28;20378;-88
2021/01/16 00:23:23;;;;;;;28.30;20.52;;;;;;;-2.22;94.47;96757.66;1039967;28;20521;-90
2021/01/16 00:23:54;;;;;;;26.27;20.85;;;;;;;-2.19;94.92;96759.13;1039684;28;20021;-88
2021/01/16 00:24:24;;;;;;;29.08;20.45;;;;;;;-2.25;94.78;96755.38;1036090;28;20021;-88
2021/01/16 00:24:58;;;;;;;28.38;21.23;;;;;;;-2.24;94.52;96761.38;1037984;28;20038;-89
2021/01/16 00:25:28;;;;;;;28.48;21.08;;;;;;;-2.22;94.53;96760.25;1040824;28;20025;-87
2021/01/16 00:25:59;;;;;;;25.95;19.60;;;;;;;-2.24;94.01;96761.38;1036787;28;20530;-87
2021/01/16 00:26:29;;;;;;;25.20;18.98;;;;;;;-2.19;92.90;96759.94;1036552;28;20021;-88
2021/01/16 00:26:59;;;;;;;26.90;21.50;;;;;;;-2.16;94.32;96769.19;1040285;28;20030;-89
2021/01/16 00:27:30;;;;;;;26.95;20.75;;;;;;;-2.18;93.96;96760.75;1040327;28;20030;-88
2021/01/16 00:28:00;;;;;;;27.10;19.92;;;;;;;-2.20;93.26;96762.69;1040283;28;20487;-88
2021/01/16 00:28:32;;;;;;;26.85;19.95;;;;;;;-2.17;94.01;96759.78;1036429;28;20022;-88
2021/01/16 00:29:03;;;;;;;26.52;19.80;;;;;;;-2.13;93.64;96764.53;1036455;28;20030;-88
2021/01/16 00:29:33;;;;;;;25.95;19.52;;;;;;;-2.13;93.37;96761.09;1036019;28;20037;-88
2021/01/16 00:30:06;;;;;;;27.25;20.20;;;;;;;-2.14;94.37;96762.88;1036747;28;20064;-88
2021/01/16 00:30:36;;;;;;;27.45;19.88;;;;;;;-2.15;93.75;96763.03;1040487;28;20029;-88
2021/01/16 00:31:07;;;;;;;26.30;20.10;;;;;;;-2.16;94.18;96761.41;1036203;28;20029;-88
2021/01/16 00:31:37;;;;;;;24.50;19.02;;;;;;;-2.24;93.24;96759.59;1028253;28;20097;-88
2021/01/16 00:32:07;;;;;;;26.40;19.35;;;;;;;-2.22;93.07;96765.44;1020151;29;20101;-88
2021/01/16 00:32:38;;;;;;;28.20;20.88;;;;;;;-2.17;94.05;96762.38;1020408;28;20561;-88
2021/01/16 00:33:19;;;;;;;26.65;19.65;;;;;;;-2.13;94.44;96766.28;1024384;28;20019;-90
2021/01/16 00:33:49;;;;;;;25.50;19.73;;;;;;;-2.17;94.20;96762.38;1032360;28;20169;-90
2021/01/16 00:34:20;;;;;;;27.73;20.63;;;;;;;-2.18;93.56;96763.34;1040367;28;20453;-89
2021/01/16 00:34:50;;;;;;;25.58;18.55;;;;;;;-2.15;93.06;96757.84;1041945;28;20502;-88
2021/01/16 00:35:21;;;;;;;26.45;19.90;;;;;;;-2.14;93.92;96759.47;1044677;28;20047;-88
2021/01/16 00:35:52;;;;;;;27.40;20.90;;;;;;;-2.12;93.45;96765.34;1040022;28;20402;-89
2021/01/16 00:36:22;;;;;;;25.70;20.17;;;;;;;-2.16;93.19;96758.81;1040331;28;20026;-90
2021/01/16 00:36:52;;;;;;;28.58;20.02;;;;;;;-2.19;93.23;96761.72;1040410;28;20375;-89
2021/01/16 00:37:23;;;;;;;25.10;19.85;;;;;;;-2.14;94.31;96756.88;1040487;28;20463;-89
2021/01/16 00:37:53;;;;;;;27.40;21.25;;;;;;;-2.08;94.15;96758.88;1044823;28;20032;-89
2021/01/16 00:38:24;;;;;;;27.40;20.70;;;;;;;-2.14;93.49;96762.06;1044791;28;20028;-88
2021/01/16 00:38:54;;;;;;;26.35;20.13;;;;;;;-2.18;94.17;96761.56;1044786;28;20119;-89
2021/01/16 00:39:25;;;;;;;27.42;20.83;;;;;;;-2.25;93.11;96760.56;1044685;28;20040;-88
2021/01/16 00:39:55;;;;;;;25.73;19.85;;;;;;;-2.22;93.98;96757.66;1044898;28;20485;-89
2021/01/16 00:40:26;;;;;;;27.25;20.63;;;;;;;-2.24;93.38;96766.56;1036121;28;20438;-89
2021/01/16 00:40:56;;;;;;;25.67;20.13;;;;;;;-2.24;93.20;96774.38;1036316;28;20048;-89
2021/01/16 00:41:29;;;;;;;29.88;21.05;;;;;;;-2.28;93.28;96762.63;1032063;28;20128;-89
2021/01/16 00:41:59;;;;;;;27.23;20.35;;;;;;;-2.31;93.28;96763.75;1032811;28;20033;-89
2021/01/16 00:42:30;;;;;;;27.05;20.25;;;;;;;-2.30;93.05;96767.97;1040466;28;20028;-90
2021/01/16 00:43:05;;;;;;;27.42;21.52;;;;;;;-2.36;93.71;96766.81;1040687;28;20033;-89
2021/01/16 00:43:35;;;;;;;28.15;20.65;;;;;;;-2.37;93.48;96767.78;1033330;28;20060;-89
2021/01/16 00:44:06;;;;;;;26.90;20.83;;;;;;;-2.43;93.24;96760.59;1032329;28;20182;-90
2021/01/16 00:44:36;;;;;;;28.75;21.20;;;;;;;-2.32;94.74;96766.50;1032400;28;20030;-90
2021/01/16 00:45:07;;;;;;;28.33;20.67;;;;;;;-2.33;94.43;96767.47;1032495;28;20014;-89
2021/01/16 00:45:40;;;;;;;28.08;19.35;;;;;;;-2.28;93.83;96765.22;1036029;28;20030;-89
2021/01/16 00:46:12;;;;;;;27.00;20.50;;;;;;;-2.27;94.69;96765.06;1035448;28;20486;-89
2021/01/16 00:46:42;;;;;;;26.30;20.35;;;;;;;-2.20;94.65;96767.88;1036226;28;20029;-89
2021/01/16 00:47:13;;;;;;;29.20;21.00;;;;;;;-2.21;93.70;96768.84;1036815;28;20044;-90
2021/01/16 00:47:44;;;;;;;26.33;19.98;;;;;;;-2.18;93.72;96771.94;1040651;28;20441;-89
2021/01/16 00:48:21;;;;;;;28.25;20.55;;;;;;;-2.25;93.87;96773.56;1040758;28;20461;-90
2021/01/16 00:48:52;;;;;;;25.33;19.63;;;;;;;-2.27;93.54;96769.44;1035926;28;20414;-89
2021/01/16 00:49:23;;;;;;;27.45;20.60;;;;;;;-2.24;93.90;96770.00;1036193;28;20022;-90
2021/01/16 00:49:54;;;;;;;29.98;20.05;;;;;;;-2.21;93.72;96768.84;1036323;28;20025;-88
2021/01/16 00:50:24;;;;;;;24.15;19.45;;;;;;;-2.26;93.93;96771.09;1038792;28;20026;-91
2021/01/16 00:50:55;;;;;;;27.33;21.30;;;;;;;-2.24;94.05;96774.38;1044699;28;20024;-88
2021/01/16 00:51:26;;;;;;;29.33;20.65;;;;;;;-2.20;93.29;96770.50;1044601;28;20465;-89
2021/01/16 00:51:56;;;;;;;26.10;20.63;;;;;;;-2.20;92.97;96773.09;1044662;28;20024;-88
2021/01/16 00:52:26;;;;;;;25.40;20.15;;;;;;;-2.16;93.27;96782.19;1044881;28;20077;-88
2021/01/16 00:52:58;;;;;;;24.90;19.70;;;;;;;-2.16;93.16;96775.22;1044752;28;20082;-90
2021/01/16 00:53:28;;;;;;;27.42;20.52;;;;;;;-2.17;92.80;96771.00;1044026;28;20113;-89
2021/01/16 00:53:58;;;;;;;27.42;20.42;;;;;;;-2.19;92.63;96772.13;1044676;28;20079;-89
2021/01/16 00:54:29;;;;;;;26.58;21.08;;;;;;;-2.18;92.64;96773.75;1040371;28;20103;-89
2021/01/16 00:54:59;;;;;;;27.00;20.73;;;;;;;-2.22;93.59;96778.44;1040109;28;20041;-91
2021/01/16 00:55:30;;;;;;;26.65;20.42;;;;;;;-2.18;94.38;96773.75;1039909;28;20025;-91
2021/01/16 00:56:00;;;;;;;27.52;20.42;;;;;;;-2.19;94.10;96778.13;1040144;28;20025;-89
2021/01/16 00:56:31;;;;;;;28.00;21.35;;;;;;;-2.15;94.16;96776.84;1040254;28;20455;-91
2021/01/16 00:57:01;;;;;;;26.67;20.52;;;;;;;-2.13;94.10;96776.69;1039752;28;20095;-89
2021/01/16 00:57:32;;;;;;;26.40;19.77;;;;;;;-2.10;94.39;96777.22;1036160;28;20067;-89
2021/01/16 00:58:16;;;;;;;28.10;21.67;;;;;;;-2.11;93.70;96782.56;1036334;28;20479;-89
2021/01/16 00:58:46;;;;;;;26.77;20.55;;;;;;;-2.10;93.22;96782.41;1037696;28;22069;-90
2021/01/16 00:59:16;;;;;;;26.63;20.67;;;;;;;-2.12;93.66;96781.75;1038079;28;20035;-90
2021/01/16 00:59:47;;;;;;;26.95;20.35;;;;;;;-2.11;93.32;96787.75;1040550;28;20024;-89
2021/01/16 01:00:18;;;;;;;26.30;19.95;;;;;;;-2.14;93.45;96786.25;1040535;28;20013;-90
2021/01/16 01:00:49;;;;;;;26.88;20.67;;;;;;;-2.16;93.39;96783.00;1036064;28;20021;-89
2021/01/16 01:01:20;;;;;;;25.40;19.50;;;;;;;-2.22;92.09;96785.41;1036247;28;20018;-90
2021/01/16 01:01:50;;;;;;;26.13;20.05;;;;;;;-2.26;92.12;96782.28;1036065;28;20375;-89
2021/01/16 01:02:21;;;;;;;26.92;20.40;;;;;;;-2.23;92.32;96788.97;1036477;28;20017;-90
2021/01/16 01:02:52;;;;;;;25.00;19.75;;;;;;;-2.29;92.73;96781.78;1040246;28;20047;-89
2021/01/16 01:03:24;;;;;;;23.90;19.10;;;;;;;-2.32;92.48;96777.72;1040271;28;20438;-90
2021/01/16 01:03:54;;;;;;;25.42;19.60;;;;;;;-2.25;93.32;96783.09;1040941;28;20014;-89
2021/01/16 01:04:24;;;;;;;30.35;21.35;;;;;;;-2.22;93.43;96773.25;1043275;28;20557;-91
2021/01/16 01:04:55;;;;;;;27.73;21.23;;;;;;;-2.21;93.26;96779.25;1036404;28;20013;-89
2021/01/16 01:05:25;;;;;;;26.45;20.15;;;;;;;-2.26;92.29;96784.06;1036240;28;20514;-88
2021/01/16 01:05:56;;;;;;;25.33;19.92;;;;;;;-2.21;92.66;96784.44;1036341;28;20018;-89
2021/01/16 01:06:26;;;;;;;27.40;20.15;;;;;;;-2.20;93.20;96786.06;1036460;28;20021;-91
2021/01/16 01:07:00;;;;;;;26.40;20.55;;;;;;;-2.18;93.71;96789.31;1040595;28;20009;-88
2021/01/16 01:07:30;;;;;;;24.52;19.02;;;;;;;-2.18;93.57;96781.53;1040553;28;20484;-88
2021/01/16 01:08:01;;;;;;;25.08;20.77;;;;;;;-2.16;93.83;96788.19;1040520;28;20021;-89
2021/01/16 01:08:31;;;;;;;26.55;20.90;;;;;;;-2.18;93.52;96784.94;1039576;28;20025;-89
2021/01/16 01:09:04;;;;;;;27.35;19.52;;;;;;;-2.17;92.75;96791.75;1040651;28;20034;-89
2021/01/16 01:09:34;;;;;;;26.98;21.13;;;;;;;-2.14;92.41;96786.25;1040195;28;20044;-89
2021/01/16 01:10:06;;;;;;;26.55;20.50;;;;;;;-2.17;92.18;96785.75;1040279;28;20033;-88
2021/01/16 01:10:41;;;;;;;26.15;19.65;;;;;;;-2.15;92.74;96789.00;1040083;28;20025;-89
2021/01/16 01:11:12;;;;;;;24.38;19.38;;;;;;;-2.15;93.17;96789.00;1040116;28;20022;-88
2021/01/16 01:11:42;;;;;;;27.10;19.25;;;;;;;-2.13;93.09;96789.66;1040527;28;20025;-89
2021/01/16 01:12:13;;;;;;;23.70;19.33;;;;;;;-2.15;93.32;96795.00;1040640;28;20095;-90
2021/01/16 01:12:43;;;;;;;26.15;19.45;;;;;;;-2.14;93.51;96783.66;1040661;28;20076;-90
2021/01/16 01:13:14;;;;;;;24.77;19.17;;;;;;;-2.19;93.36;96788.50;1040375;28;20030;-90
2021/01/16 01:13:44;;;;;;;27.00;18.67;;;;;;;-2.13;93.25;96787.06;1040483;28;20057;-90
2021/01/16 01:14:14;;;;;;;24.42;18.67;;;;;;;-2.08;92.35;96787.44;1040538;28;20067;-89
2021/01/16 01:14:45;;;;;;;26.90;19.63;;;;;;;-2.09;91.99;96784.03;1040370;28;20030;-89
2021/01/16 01:15:15;;;;;;;25.95;20.45;;;;;;;-2.13;92.79;96787.06;1039905;28;20013;-90
2021/01/16 01:15:46;;;;;;;24.98;19.08;;;;;;;-2.09;92.02;96783.22;1040574;28;20029;-89
2021/01/16 01:16:16;;;;;;;25.40;19.75;;;;;;;-2.17;92.42;96790.94;1039596;28;20038;-91
2021/01/16 01:16:47;;;;;;;26.52;19.80;;;;;;;-2.15;93.16;96783.81;1040284;28;20033;-90
2021/01/16 01:17:18;;;;;;;26.45;19.90;;;;;;;-2.19;92.33;96782.50;1040529;28;20026;-90
2021/01/16 01:17:50;;;;;;;24.48;18.85;;;;;;;-2.15;91.99;96782.03;1032084;28;20105;-90
2021/01/16 01:18:21;;;;;;;26.00;18.77;;;;;;;-2.12;91.59;96788.72;1031990;28;20484;-91
2021/01/16 01:18:51;;;;;;;25.85;19.67;;;;;;;-2.19;92.05;96790.28;1032006;28;20023;-92
2021/01/16 01:19:22;;;;;;;23.33;18.90;;;;;;;-2.21;92.76;96789.63;1032452;28;20034;-90
2021/01/16 01:19:52;;;;;;;24.98;18.80;;;;;;;-2.19;93.14;96780.72;1036184;28;20029;-91
2021/01/16 01:20:23;;;;;;;24.02;18.83;;;;;;;-2.17;93.48;96785.75;1036072;28;20036;-89
2021/01/16 01:20:53;;;;;;;30.10;20.90;;;;;;;-2.16;93.42;96787.38;1036025;28;20014;-90
2021/01/16 01:21:24;;;;;;;25.52;19.60;;;;;;;-2.18;93.01;96790.13;1036274;28;20026;-91
2021/01/16 01:21:54;;;;;;;21.92;17.52;;;;;;;-2.15;92.29;96784.63;1040672;28;20022;-90
2021/01/16 01:22:30;;;;;;;26.00;19.83;;;;;;;-2.16;92.10;96795.16;1040441;28;20084;-91
2021/01/16 01:23:01;;;;;;;26.58;19.17;;;;;;;-2.16;92.06;96788.19;1040668;28;20104;-91
2021/01/16 01:23:31;;;;;;;26.20;19.25;;;;;;;-2.16;92.25;96787.38;1040555;28;20022;-90
2021/01/16 01:24:01;;;;;;;27.25;20.92;;;;;;;-2.18;92.96;96784.13;1040541;28;20016;-89
2021/01/16 01:24:35;;;;;;;26.05;19.13;;;;;;;-2.13;93.37;96789.66;1031961;28;20064;-91
2021/01/16 01:25:06;;;;;;;25.67;19.95;;;;;;;-2.15;92.61;96778.63;1032076;28;20057;-90
2021/01/16 01:25:37;;;;;;;28.60;20.65;;;;;;;-2.14;92.78;96780.25;1032128;28;20027;-90
2021/01/16 01:26:09;;;;;;;24.75;19.52;;;;;;;-2.13;92.23;96787.06;1034111;28;20025;-92
2021/01/16 01:26:40;;;;;;;25.48;19.65;;;;;;;-2.12;92.85;96786.94;1036398;28;20029;-92
2021/01/16 01:27:10;;;;;;;26.33;19.75;;;;;;;-2.11;93.35;96782.56;1036195;28;20017;-91
2021/01/16 01:27:42;;;;;;;26.92;19.55;;;;;;;-2.10;93.28;96786.78;1032132;28;20026;-90
2021/01/16 01:28:13;;;;;;;25.80;19.75;;;;;;;-2.11;92.28;96790.34;1033384;28;20018;-92
2021/01/16 01:28:43;;;;;;;25.90;20.30;;;;;;;-2.17;92.96;96781.38;1032012;28;20063;-90
2021/01/16 01:29:13;;;;;;;25.60;19.90;;;;;;;-2.16;92.89;96796.00;1032413;28;20047;-90
2021/01/16 01:29:45;;;;;;;25.23;20.10;;;;;;;-2.15;93.24;96791.59;1036249;28;20017;-92
2021/01/16 01:30:16;;;;;;;28.63;21.02;;;;;;;-2.19;92.35;96785.91;1036452;28;20018;-91
2021/01/16 01:30:46;;;;;;;26.17;20.40;;;;;;;-2.13;92.06;96787.91;1036417;28;20022;-93
2021/01/16 01:31:16;;;;;;;24.00;18.58;;;;;;;-2.16;92.05;96779.59;1036780;28;20026;-90
2021/01/16 01:31:49;;;;;;;28.25;21.27;;;;;;;-2.14;92.80;96790.63;1040790;28;20013;-95
2021/01/16 01:32:19;;;;;;;28.77;21.30;;;;;;;-2.09;93.54;96788.41;1041676;28;20426;-92
2021/01/16 01:32:50;;;;;;;23.60;18.65;;;;;;;-2.09;92.85;96781.44;1033461;28;20026;-96
2021/01/16 01:33:20;;;;;;;24.13;19.05;;;;;;;-2.09;93.20;96793.59;1032340;28;20495;-92
2021/01/16 01:33:54;;;;;;;25.08;19.88;;;;;;;-2.11;92.43;96782.56;1032671;28;20022;-89
2021/01/16 01:34:27;;;;;;;26.58;19.17;;;;;;;-2.18;91.57;96789.31;1033711;28;20379;-90
2021/01/16 01:34:58;;;;;;;27.65;21.52;;;;;;;-2.23;91.78;96786.38;1041534;28;20466;-94
2021/01/16 01:35:29;;;;;;;27.73;20.30;;;;;;;-2.27;92.45;96780.66;1041226;28;20037;-95
2021/01/16 01:36:00;;;;;;;28.73;21.02;;;;;;;-2.24;92.47;96785.56;1040916;28;20030;-94
2021/01/16 01:36:30;;;;;;;28.95;20.98;;;;;;;-2.27;93.05;96785.84;1036580;28;20461;-86
2021/01/16 01:37:00;;;;;;;25.20;20.55;;;;;;;-2.33;92.53;96790.84;1037113;28;20026;-88
2021/01/16 01:37:31;;;;;;;26.08;20.33;;;;;;;-2.34;92.04;96784.84;1040164;28;20006;-86
2021/01/16 01:38:01;;;;;;;25.92;19.75;;;;;;;-2.32;92.05;96787.28;1039728;28;20092;-87
2021/01/16 01:38:32;;;;;;;27.92;20.67;;;;;;;-2.37;92.21;96783.38;1040136;28;20033;-88
2021/01/16 01:39:02;;;;;;;28.65;21.30;;;;;;;-2.37;93.17;96791.16;1032874;28;20026;-91
2021/01/16 01:39:33;;;;;;;26.17;20.10;;;;;;;-2.38;93.32;96793.88;1036820;28;20049;-87
2021/01/16 01:40:04;;;;;;;26.60;21.00;;;;;;;-2.45;92.43;96791.09;1038351;28;20021;-86
2021/01/16 01:40:34;;;;;;;26.88;20.55;;;;;;;-2.47;92.47;96785.25;1042370;28;20030;-87
2021/01/16 01:41:05;;;;;;;24.80;19.70;;;;;;;-2.43;92.78;96789.16;1045804;28;20031;-87
2021/01/16 01:41:40;;;;;;;25.40;20.15;;;;;;;-2.37;93.31;96792.91;1047039;28;20044;-89
2021/01/16 01:42:16;;;;;;;29.30;22.13;;;;;;;-2.37;94.13;96782.53;1040919;28;20053;-87
2021/01/16 01:42:51;;;;;;;25.67;19.13;;;;;;;-2.31;93.69;96794.91;1041874;28;20105;-92
2021/01/16 01:43:22;;;;;;;24.80;19.30;;;;;;;-2.31;93.09;96789.72;1041669;28;20416;-89
2021/01/16 01:43:53;;;;;;;26.75;20.83;;;;;;;-2.28;93.33;96794.59;1040888;28;20022;-88
2021/01/16 01:44:24;;;;;;;23.83;19.13;;;;;;;-2.21;92.75;96794.81;1045554;28;20013;-87
2021/01/16 01:44:54;;;;;;;28.90;20.52;;;;;;;-2.28;92.72;96786.00;1046311;28;20070;-87
2021/01/16 01:45:26;;;;;;;26.70;20.30;;;;;;;-2.26;92.38;96791.84;1044549;28;20051;-88
2021/01/16 01:45:58;;;;;;;27.67;21.00;;;;;;;-2.30;92.26;96790.53;1034928;28;20086;-89
2021/01/16 01:46:28;;;;;;;26.48;20.35;;;;;;;-2.34;92.84;96786.63;1035340;28;20033;-89
2021/01/16 01:46:59;;;;;;;26.13;20.35;;;;;;;-2.36;92.71;96789.38;1036109;28;20105;-88
2021/01/16 01:47:29;;;;;;;29.95;22.02;;;;;;;-2.38;92.57;96786.91;1036034;28;20082;-87
2021/01/16 01:48:00;;;;;;;28.80;21.90;;;;;;;-2.42;92.31;96785.59;1035881;28;20014;-87
2021/01/16 01:48:31;;;;;;;28.52;21.92;;;;;;;-2.40;92.48;96786.25;1032399;28;20022;-88
2021/01/16 01:49:06;;;;;;;31.63;21.55;;;;;;;-2.51;92.53;96789.09;1033447;28;20049;-87
2021/01/16 01:49:36;;;;;;;29.60;22.30;;;;;;;-2.51;92.97;96786.50;1029953;28;20160;-88
2021/01/16 01:50:08;;;;;;;28.20;21.40;;;;;;;-2.58;93.17;96785.47;1036423;28;20169;-88
2021/01/16 01:50:39;;;;;;;27.70;20.48;;;;;;;-2.48;92.72;96782.81;1039603;28;20028;-86
2021/01/16 01:51:10;;;;;;;28.92;21.42;;;;;;;-2.48;93.92;96788.00;1032425;28;20021;-90
2021/01/16 01:51:40;;;;;;;27.95;20.90;;;;;;;-2.49;93.47;96792.34;1027949;28;20027;-86
2021/01/16 01:52:11;;;;;;;28.25;21.17;;;;;;;-2.53;93.15;96785.84;1031643;28;20022;-86
2021/01/16 01:52:41;;;;;;;27.88;21.88;;;;;;;-2.53;92.87;96788.44;1027854;28;20031;-86
2021/01/16 01:53:13;;;;;;;29.60;21.73;;;;;;;-2.46;94.06;96791.25;1035808;28;20022;-86
2021/01/16 01:53:44;;;;;;;30.20;21.88;;;;;;;-2.47;94.31;96790.44;1035664;28;20025;-87
2021/01/16 01:54:15;;;;;;;28.80;22.40;;;;;;;-2.48;94.14;96786.22;1031695;28;20035;-86
2021/01/16 01:54:45;;;;;;;27.55;21.00;;;;;;;-2.49;93.43;96788.94;1027547;28;20054;-86
2021/01/16 01:55:16;;;;;;;30.48;21.95;;;;;;;-2.48;93.90;96783.63;1027631;28;20065;-88
2021/01/16 01:55:49;;;;;;;29.70;20.85;;;;;;;-2.42;94.21;96782.19;1027442;28;20082;-86
2021/01/16 01:56:19;;;;;;;28.60;21.05;;;;;;;-2.42;93.69;96783.00;1032453;28;20475;-87
2021/01/16 01:56:50;;;;;;;30.90;21.00;;;;;;;-2.37;94.89;96787.72;1032173;28;20030;-86
2021/01/16 01:57:22;;;;;;;29.33;21.85;;;;;;;-2.43;94.26;96786.56;1032465;28;20022;-90
2021/01/16 01:57:56;;;;;;;29.98;22.15;;;;;;;-2.38;94.12;96784.31;1031920;28;20023;-86
2021/01/16 01:58:26;;;;;;;30.00;22.10;;;;;;;-2.44;93.36;96787.53;1031690;28;20053;-87
2021/01/16 01:58:58;;;;;;;29.20;22.60;;;;;;;-2.47;93.65;96785.25;1029360;28;20023;-87
2021/01/16 01:59:34;;;;;;;27.88;21.40;;;;;;;-2.56;93.43;96780.94;1036764;28;20029;-89
2021/01/16 02:00:08;;;;;;;29.60;22.02;;;;;;;-2.63;93.73;96784.28;1040195;28;20100;-85
2021/01/16 02:00:39;;;;;;;28.98;21.92;;;;;;;-2.58;94.32;96785.47;1039701;28;20344;-86
2021/01/16 02:01:09;;;;;;;29.15;22.10;;;;;;;-2.61;93.84;96777.97;1035970;28;20022;-89
2021/01/16 02:01:45;;;;;;;29.38;22.13;;;;;;;-2.58;93.77;96782.88;1027777;28;20046;-87
2021/01/16 02:02:16;;;;;;;28.73;20.55;;;;;;;-2.52;93.70;96781.44;1023986;29;20526;-86
2021/01/16 02:02:46;;;;;;;26.73;21.13;;;;;;;-2.50;93.85;96775.13;1024700;28;20023;-87
2021/01/16 02:03:17;;;;;;;30.80;22.08;;;;;;;-2.53;93.86;96774.63;1025563;28;20019;-86
2021/01/16 02:03:48;;;;;;;27.75;21.40;;;;;;;-2.52;93.61;96778.84;1027766;28;20026;-86
2021/01/16 02:04:18;;;;;;;31.20;22.30;;;;;;;-2.54;93.31;96778.19;1032094;28;20018;-86
2021/01/16 02:04:50;;;;;;;27.05;20.60;;;;;;;-2.51;93.53;96776.09;1028005;28;20025;-88
2021/01/16 02:05:20;;;;;;;30.10;21.38;;;;;;;-2.50;93.44;96777.72;1028309;28;20567;-86
2021/01/16 02:05:54;;;;;;;28.92;22.80;;;;;;;-2.54;93.38;96781.59;1035466;28;20042;-88
2021/01/16 02:06:31;;;;;;;31.73;22.63;;;;;;;-2.54;93.90;96776.41;1033033;28;20498;-87
2021/01/16 02:07:28;;;;;;;29.92;22.77;;;;;;;-2.61;94.20;96783.16;1035948;28;20472;-88
2021/01/16 02:07:58;;;;;;;27.88;21.58;;;;;;;-2.54;94.82;96778.19;1032316;28;20503;-87
2021/01/16 02:08:29;;;;;;;29.92;22.10;;;;;;;-2.52;94.97;96777.06;1035745;28;20025;-87
2021/01/16 02:08:59;;;;;;;28.17;20.90;;;;;;;-2.54;94.39;96781.59;1036040;28;20105;-87
2021/01/16 02:09:30;;;;;;;32.15;23.80;;;;;;;-2.56;93.97;96786.13;1038215;28;20018;-86
2021/01/16 02:10:00;;;;;;;29.48;21.25;;;;;;;-2.60;93.81;96777.03;1040342;28;20013;-86
2021/01/16 02:10:33;;;;;;;28.90;20.73;;;;;;;-2.56;93.60;96770.56;1040222;28;20014;-87
2021/01/16 02:11:03;;;;;;;30.77;22.92;;;;;;;-2.56;93.44;96775.75;1035907;28;20041;-86
2021/01/16 02:11:33;;;;;;;32.13;22.95;;;;;;;-2.52;95.10;96771.88;1036324;28;20049;-87
2021/01/16 02:12:06;;;;;;;34.38;22.33;;;;;;;-2.58;94.11;96777.69;1032608;28;20078;-86
2021/01/16 02:12:40;;;;;;;31.60;23.42;;;;;;;-2.53;93.83;96770.25;1033171;28;20023;-87
2021/01/16 02:13:10;;;;;;;29.75;22.75;;;;;;;-2.58;93.93;96776.88;1036530;28;20017;-88
2021/01/16 02:13:41;;;;;;;33.90;23.85;;;;;;;-2.60;94.21;96768.44;1033550;28;20539;-87
2021/01/16 02:14:11;;;;;;;30.35;22.30;;;;;;;-2.52;93.62;96776.25;1032752;28;20029;-88
2021/01/16 02:14:42;;;;;;;31.02;23.38;;;;;;;-2.56;94.33;96778.34;1032699;28;20018;-88
2021/01/16 02:15:21;;;;;;;32.97;22.70;;;;;;;-2.65;94.62;96776.66;1032949;28;20365;-89
2021/01/16 02:16:03;;;;;;;30.60;23.50;;;;;;;-2.66;94.29;96775.03;1028008;28;20105;-87
2021/01/16 02:16:40;;;;;;;31.85;22.20;;;;;;;-2.62;93.79;96776.34;1032960;28;20058;-87
2021/01/16 02:17:12;;;;;;;29.75;22.75;;;;;;;-2.56;95.45;96773.16;1036271;28;20057;-87
2021/01/16 02:17:49;;;;;;;31.75;23.48;;;;;;;-2.51;95.22;96777.88;1031775;28;20510;-88
2021/01/16 02:18:26;;;;;;;32.70;23.60;;;;;;;-2.62;94.01;96776.34;1031947;28;20040;-88
2021/01/16 02:18:57;;;;;;;29.58;21.17;;;;;;;-2.61;93.70;96769.38;1034195;28;20469;-87
2021/01/16 02:20:07;;;;;;;29.80;22.15;;;;;;;-2.65;94.67;96774.88;1034647;28;20019;-86
2021/01/16 02:20:37;;;;;;;30.40;21.38;;;;;;;-2.69;94.44;96776.16;1036011;28;20034;-86
2021/01/16 02:21:11;;;;;;;30.30;21.92;;;;;;;-2.65;94.30;96777.47;1029081;28;20163;-86
2021/01/16 02:21:43;;;;;;;28.80;21.05;;;;;;;-2.65;94.41;96780.06;1031758;28;20113;-87
2021/01/16 02:22:13;;;;;;;29.35;22.40;;;;;;;-2.62;94.37;96781.53;1031813;28;20030;-86
2021/01/16 02:23:21;;;;;;;31.95;22.92;;;;;;;-2.58;94.61;96782.88;1027634;28;20085;-87
2021/01/16 02:23:51;;;;;;;29.10;21.40;;;;;;;-2.64;94.08;96786.06;1015685;29;20071;-87
2021/01/16 02:24:23;;;;;;;31.70;23.15;;;;;;;-2.67;94.40;96783.78;1016595;29;20056;-88
2021/01/16 02:25:14;;;;;;;29.70;22.92;;;;;;;-2.63;95.45;96789.47;1015818;29;20036;-87
2021/01/16 02:26:00;;;;;;;31.08;21.80;;;;;;;-2.68;94.62;96784.75;1020113;29;20538;-88
2021/01/16 02:26:42;;;;;;;29.27;21.52;;;;;;;-2.68;93.98;96784.75;1022827;28;20028;-86